sensor_id;sensor_type;location;lat;lon;timestamp;temperature;humidity
19610;DHT22;9952;47.122;-1.638;2023-03-14T00:03:34;11.80;99.90
19610;DHT22;9952;47.122;-1.638;2023-03-14T00:08:15;11.80;99.90
19610;DHT22;9952;47.122;-1.638;2023-03-14T00:12:56;11.90;99.90
19610;DHT22;9952;47.122;-1.638;2023-03-14T00:17:37;11.80;99.90
19610;DHT22;9952;47.122;-1.638;2023-03-14T00:22:18;11.70;99.90
19610;DHT22;9952;47.122;-1.638;2023-03-14T00:26:59;11.70;99.90
19610;DHT22;9952;47.122;-1.638;2023-03-14T00:31:40;11.70;99.90
19610;DHT22;9952;47.122;-1.638;2023-03-14T00:36:21;11.80;99.90
19610;DHT22;9952;47.122;-1.638;2023-03-14T00:41:08;11.70;99.90
19610;DHT22;9952;47.122;-1.638;2023-03-14T00:45:52;11.60;99.90
19610;DHT22;9952;47.122;-1.638;2023-03-14T00:50:33;11.50;99.90
19610;DHT22;9952;47.122;-1.638;2023-03-14T00:55:14;11.40;99.90
19610;DHT22;9952;47.122;-1.638;2023-03-14T00:59:55;11.30;99.90
19610;DHT22;9952;47.122;-1.638;2023-03-14T01:04:36;11.30;99.90
19610;DHT22;9952;47.122;-1.638;2023-03-14T01:09:18;11.30;99.90
19610;DHT22;9952;47.122;-1.638;2023-03-14T01:13:59;11.30;99.90
19610;DHT22;9952;47.122;-1.638;2023-03-14T01:18:41;11.30;99.90
19610;DHT22;9952;47.122;-1.638;2023-03-14T01:23:24;11.20;99.90
19610;DHT22;9952;47.122;-1.638;2023-03-14T01:28:04;11.10;99.90
19610;DHT22;9952;47.122;-1.638;2023-03-14T01:32:45;11.10;99.90
19610;DHT22;9952;47.122;-1.638;2023-03-14T01:37:26;11.10;99.90
19610;DHT22;9952;47.122;-1.638;2023-03-14T01:42:07;11.00;99.90
19610;DHT22;9952;47.122;-1.638;2023-03-14T01:46:48;10.90;99.90
19610;DHT22;9952;47.122;-1.638;2023-03-14T01:52:09;10.90;99.90
19610;DHT22;9952;47.122;-1.638;2023-03-14T01:56:59;10.80;99.90
19610;DHT22;9952;47.122;-1.638;2023-03-14T02:01:45;10.70;99.90
19610;DHT22;9952;47.122;-1.638;2023-03-14T02:06:34;10.70;99.90
19610;DHT22;9952;47.122;-1.638;2023-03-14T02:11:17;10.70;99.90
19610;DHT22;9952;47.122;-1.638;2023-03-14T02:15:59;10.60;99.90
19610;DHT22;9952;47.122;-1.638;2023-03-14T02:21:06;10.70;99.90
19610;DHT22;9952;47.122;-1.638;2023-03-14T02:25:58;10.70;99.90
19610;DHT22;9952;47.122;-1.638;2023-03-14T02:30:41;10.70;99.90
19610;DHT22;9952;47.122;-1.638;2023-03-14T02:35:25;10.70;99.90
19610;DHT22;9952;47.122;-1.638;2023-03-14T02:40:08;10.70;99.90
19610;DHT22;9952;47.122;-1.638;2023-03-14T02:49:40;10.60;99.90
19610;DHT22;9952;47.122;-1.638;2023-03-14T02:54:21;10.50;99.90
19610;DHT22;9952;47.122;-1.638;2023-03-14T02:59:05;10.50;99.90
19610;DHT22;9952;47.122;-1.638;2023-03-14T03:03:46;10.40;99.90
19610;DHT22;9952;47.122;-1.638;2023-03-14T03:08:28;10.40;99.90
19610;DHT22;9952;47.122;-1.638;2023-03-14T03:13:08;10.50;99.90
19610;DHT22;9952;47.122;-1.638;2023-03-14T03:17:49;10.40;99.90
19610;DHT22;9952;47.122;-1.638;2023-03-14T03:22:30;10.30;99.90
19610;DHT22;9952;47.122;-1.638;2023-03-14T03:27:11;10.40;99.90
19610;DHT22;9952;47.122;-1.638;2023-03-14T03:31:52;10.40;99.90
19610;DHT22;9952;47.122;-1.638;2023-03-14T03:36:33;10.30;99.90
19610;DHT22;9952;47.122;-1.638;2023-03-14T03:41:14;10.30;99.90
19610;DHT22;9952;47.122;-1.638;2023-03-14T03:45:55;10.30;99.90
19610;DHT22;9952;47.122;-1.638;2023-03-14T03:50:36;10.20;99.90
19610;DHT22;9952;47.122;-1.638;2023-03-14T03:55:16;10.20;99.90
19610;DHT22;9952;47.122;-1.638;2023-03-14T03:59:57;10.20;99.90
19610;DHT22;9952;47.122;-1.638;2023-03-14T04:04:38;10.10;99.90
19610;DHT22;9952;47.122;-1.638;2023-03-14T04:09:19;10.10;99.90
19610;DHT22;9952;47.122;-1.638;2023-03-14T04:14:00;10.00;99.90
19610;DHT22;9952;47.122;-1.638;2023-03-14T04:18:42;10.00;99.90
19610;DHT22;9952;47.122;-1.638;2023-03-14T04:23:24;10.10;99.90
19610;DHT22;9952;47.122;-1.638;2023-03-14T04:28:05;10.10;99.90
19610;DHT22;9952;47.122;-1.638;2023-03-14T04:32:45;10.10;99.90
19610;DHT22;9952;47.122;-1.638;2023-03-14T04:37:26;10.00;99.90
19610;DHT22;9952;47.122;-1.638;2023-03-14T04:42:07;9.90;99.90
19610;DHT22;9952;47.122;-1.638;2023-03-14T04:46:48;9.90;99.90
19610;DHT22;9952;47.122;-1.638;2023-03-14T04:51:29;9.90;99.90
19610;DHT22;9952;47.122;-1.638;2023-03-14T04:56:10;9.90;99.90
19610;DHT22;9952;47.122;-1.638;2023-03-14T05:00:53;9.90;99.90
19610;DHT22;9952;47.122;-1.638;2023-03-14T05:05:34;9.80;99.90
19610;DHT22;9952;47.122;-1.638;2023-03-14T05:10:14;9.70;99.90
19610;DHT22;9952;47.122;-1.638;2023-03-14T05:14:55;9.70;99.90
19610;DHT22;9952;47.122;-1.638;2023-03-14T05:19:37;9.80;99.90
19610;DHT22;9952;47.122;-1.638;2023-03-14T05:24:18;9.70;99.90
19610;DHT22;9952;47.122;-1.638;2023-03-14T05:28:58;9.50;99.90
19610;DHT22;9952;47.122;-1.638;2023-03-14T05:33:39;9.50;99.90
19610;DHT22;9952;47.122;-1.638;2023-03-14T05:38:20;9.50;99.90
19610;DHT22;9952;47.122;-1.638;2023-03-14T05:43:02;9.40;99.90
19610;DHT22;9952;47.122;-1.638;2023-03-14T05:47:43;9.40;99.90
19610;DHT22;9952;47.122;-1.638;2023-03-14T05:52:24;9.30;99.90
19610;DHT22;9952;47.122;-1.638;2023-03-14T05:57:04;9.30;99.90
19610;DHT22;9952;47.122;-1.638;2023-03-14T06:01:45;9.30;99.90
19610;DHT22;9952;47.122;-1.638;2023-03-14T06:06:26;9.20;99.90
19610;DHT22;9952;47.122;-1.638;2023-03-14T06:11:07;9.20;99.90
19610;DHT22;9952;47.122;-1.638;2023-03-14T06:15:48;9.10;99.90
19610;DHT22;9952;47.122;-1.638;2023-03-14T06:20:29;9.10;99.90
19610;DHT22;9952;47.122;-1.638;2023-03-14T06:25:09;9.10;99.90
19610;DHT22;9952;47.122;-1.638;2023-03-14T06:29:50;9.10;99.90
19610;DHT22;9952;47.122;-1.638;2023-03-14T06:34:31;9.00;99.90
19610;DHT22;9952;47.122;-1.638;2023-03-14T06:39:12;9.00;99.90
19610;DHT22;9952;47.122;-1.638;2023-03-14T06:43:53;9.00;99.90
19610;DHT22;9952;47.122;-1.638;2023-03-14T06:48:34;9.10;99.90
19610;DHT22;9952;47.122;-1.638;2023-03-14T06:53:14;9.00;99.90
19610;DHT22;9952;47.122;-1.638;2023-03-14T06:57:55;9.00;99.90
19610;DHT22;9952;47.122;-1.638;2023-03-14T07:02:36;9.10;99.90
19610;DHT22;9952;47.122;-1.638;2023-03-14T07:07:17;9.20;99.90
19610;DHT22;9952;47.122;-1.638;2023-03-14T07:11:58;9.50;99.90
19610;DHT22;9952;47.122;-1.638;2023-03-14T07:16:38;9.80;99.90
19610;DHT22;9952;47.122;-1.638;2023-03-14T07:21:19;10.30;99.90
19610;DHT22;9952;47.122;-1.638;2023-03-14T07:26:01;10.90;99.90
19610;DHT22;9952;47.122;-1.638;2023-03-14T07:30:42;11.40;99.90
19610;DHT22;9952;47.122;-1.638;2023-03-14T07:35:23;11.90;99.90
19610;DHT22;9952;47.122;-1.638;2023-03-14T07:40:04;11.90;99.90
19610;DHT22;9952;47.122;-1.638;2023-03-14T07:44:48;12.10;99.90
19610;DHT22;9952;47.122;-1.638;2023-03-14T07:49:29;12.30;99.90
19610;DHT22;9952;47.122;-1.638;2023-03-14T07:54:10;12.10;99.90
19610;DHT22;9952;47.122;-1.638;2023-03-14T07:58:51;12.20;99.90
19610;DHT22;9952;47.122;-1.638;2023-03-14T08:03:32;12.30;99.90
19610;DHT22;9952;47.122;-1.638;2023-03-14T08:08:12;11.80;99.90
19610;DHT22;9952;47.122;-1.638;2023-03-14T08:12:55;11.40;99.90
19610;DHT22;9952;47.122;-1.638;2023-03-14T08:17:36;11.50;99.90
19610;DHT22;9952;47.122;-1.638;2023-03-14T08:22:17;11.40;99.90
19610;DHT22;9952;47.122;-1.638;2023-03-14T08:26:58;11.40;99.90
19610;DHT22;9952;47.122;-1.638;2023-03-14T08:31:38;11.30;99.90
19610;DHT22;9952;47.122;-1.638;2023-03-14T08:36:19;11.40;99.90
19610;DHT22;9952;47.122;-1.638;2023-03-14T08:41:02;11.70;99.90
19610;DHT22;9952;47.122;-1.638;2023-03-14T08:45:44;11.50;99.90
19610;DHT22;9952;47.122;-1.638;2023-03-14T08:50:25;11.10;99.90
19610;DHT22;9952;47.122;-1.638;2023-03-14T08:55:09;11.30;99.90
19610;DHT22;9952;47.122;-1.638;2023-03-14T08:59:50;11.50;99.90
19610;DHT22;9952;47.122;-1.638;2023-03-14T09:04:32;11.70;99.90
19610;DHT22;9952;47.122;-1.638;2023-03-14T09:09:13;11.50;99.90
19610;DHT22;9952;47.122;-1.638;2023-03-14T09:13:54;11.80;99.90
19610;DHT22;9952;47.122;-1.638;2023-03-14T09:18:35;11.90;99.90
19610;DHT22;9952;47.122;-1.638;2023-03-14T09:23:16;11.70;99.90
19610;DHT22;9952;47.122;-1.638;2023-03-14T09:27:57;11.60;99.90
19610;DHT22;9952;47.122;-1.638;2023-03-14T09:32:37;11.50;99.90
19610;DHT22;9952;47.122;-1.638;2023-03-14T09:37:18;11.50;99.90
19610;DHT22;9952;47.122;-1.638;2023-03-14T09:42:04;11.50;99.90
19610;DHT22;9952;47.122;-1.638;2023-03-14T09:46:50;11.70;99.90
19610;DHT22;9952;47.122;-1.638;2023-03-14T09:51:31;12.10;99.90
19610;DHT22;9952;47.122;-1.638;2023-03-14T09:56:23;12.80;99.90
19610;DHT22;9952;47.122;-1.638;2023-03-14T10:01:11;13.50;99.90
19610;DHT22;9952;47.122;-1.638;2023-03-14T10:05:55;13.60;99.90
19610;DHT22;9952;47.122;-1.638;2023-03-14T10:10:36;13.60;99.90
19610;DHT22;9952;47.122;-1.638;2023-03-14T10:15:30;13.80;99.90
19610;DHT22;9952;47.122;-1.638;2023-03-14T10:20:38;14.00;99.90
19610;DHT22;9952;47.122;-1.638;2023-03-14T10:25:33;14.40;99.90
19610;DHT22;9952;47.122;-1.638;2023-03-14T10:30:38;14.70;99.90
19610;DHT22;9952;47.122;-1.638;2023-03-14T10:35:25;14.90;99.90
19610;DHT22;9952;47.122;-1.638;2023-03-14T10:40:12;14.80;99.90
19610;DHT22;9952;47.122;-1.638;2023-03-14T10:44:58;14.50;99.90
19610;DHT22;9952;47.122;-1.638;2023-03-14T10:49:40;14.20;99.90
19610;DHT22;9952;47.122;-1.638;2023-03-14T10:54:22;14.20;99.90
19610;DHT22;9952;47.122;-1.638;2023-03-14T10:59:14;14.10;99.90
19610;DHT22;9952;47.122;-1.638;2023-03-14T11:14:14;13.50;99.90
19610;DHT22;9952;47.122;-1.638;2023-03-14T11:23:42;14.00;99.90
19610;DHT22;9952;47.122;-1.638;2023-03-14T11:28:37;13.70;99.90
19610;DHT22;9952;47.122;-1.638;2023-03-14T11:33:26;13.50;99.90
19610;DHT22;9952;47.122;-1.638;2023-03-14T11:43:33;14.20;99.90
19610;DHT22;9952;47.122;-1.638;2023-03-14T11:49:10;14.50;99.90
19610;DHT22;9952;47.122;-1.638;2023-03-14T11:58:34;14.40;99.90
19610;DHT22;9952;47.122;-1.638;2023-03-14T12:13:10;14.10;99.90
19610;DHT22;9952;47.122;-1.638;2023-03-14T12:17:55;14.00;99.90
19610;DHT22;9952;47.122;-1.638;2023-03-14T12:22:45;14.10;99.90
19610;DHT22;9952;47.122;-1.638;2023-03-14T12:32:36;13.80;99.90
19610;DHT22;9952;47.122;-1.638;2023-03-14T12:37:28;14.00;99.90
19610;DHT22;9952;47.122;-1.638;2023-03-14T12:42:20;14.10;99.90
19610;DHT22;9952;47.122;-1.638;2023-03-14T12:52:00;14.60;99.90
19610;DHT22;9952;47.122;-1.638;2023-03-14T13:06:54;14.70;99.90
19610;DHT22;9952;47.122;-1.638;2023-03-14T13:11:40;14.60;99.90
19610;DHT22;9952;47.122;-1.638;2023-03-14T13:16:23;14.60;99.90
19610;DHT22;9952;47.122;-1.638;2023-03-14T13:21:24;14.40;99.90
19610;DHT22;9952;47.122;-1.638;2023-03-14T13:26:13;14.70;99.90
19610;DHT22;9952;47.122;-1.638;2023-03-14T13:31:00;15.00;99.90
19610;DHT22;9952;47.122;-1.638;2023-03-14T13:35:46;15.10;99.90
19610;DHT22;9952;47.122;-1.638;2023-03-14T13:40:32;15.00;99.90
19610;DHT22;9952;47.122;-1.638;2023-03-14T13:45:14;15.10;99.90
19610;DHT22;9952;47.122;-1.638;2023-03-14T13:49:55;15.20;99.90
19610;DHT22;9952;47.122;-1.638;2023-03-14T13:54:38;15.10;99.90
19610;DHT22;9952;47.122;-1.638;2023-03-14T13:59:30;14.80;99.90
19610;DHT22;9952;47.122;-1.638;2023-03-14T14:04:16;14.80;99.90
19610;DHT22;9952;47.122;-1.638;2023-03-14T14:09:02;14.90;99.90
19610;DHT22;9952;47.122;-1.638;2023-03-14T14:13:43;15.00;99.90
19610;DHT22;9952;47.122;-1.638;2023-03-14T14:18:26;14.90;99.90
19610;DHT22;9952;47.122;-1.638;2023-03-14T14:23:13;14.70;99.90
19610;DHT22;9952;47.122;-1.638;2023-03-14T14:27:55;14.70;99.90
19610;DHT22;9952;47.122;-1.638;2023-03-14T14:32:38;14.50;99.90
19610;DHT22;9952;47.122;-1.638;2023-03-14T14:37:24;14.40;99.90
19610;DHT22;9952;47.122;-1.638;2023-03-14T14:42:14;14.40;99.90
19610;DHT22;9952;47.122;-1.638;2023-03-14T14:46:57;14.50;99.90
19610;DHT22;9952;47.122;-1.638;2023-03-14T14:51:44;14.40;99.90
19610;DHT22;9952;47.122;-1.638;2023-03-14T14:56:28;14.20;99.90
19610;DHT22;9952;47.122;-1.638;2023-03-14T15:01:25;14.20;99.90
19610;DHT22;9952;47.122;-1.638;2023-03-14T15:06:16;14.30;99.90
19610;DHT22;9952;47.122;-1.638;2023-03-14T15:10:58;14.30;99.90
19610;DHT22;9952;47.122;-1.638;2023-03-14T15:15:38;14.20;99.90
19610;DHT22;9952;47.122;-1.638;2023-03-14T15:20:19;14.10;99.90
19610;DHT22;9952;47.122;-1.638;2023-03-14T15:25:04;14.10;99.90
19610;DHT22;9952;47.122;-1.638;2023-03-14T15:29:44;13.90;99.90
19610;DHT22;9952;47.122;-1.638;2023-03-14T15:34:25;13.90;99.90
19610;DHT22;9952;47.122;-1.638;2023-03-14T15:39:10;13.80;99.90
19610;DHT22;9952;47.122;-1.638;2023-03-14T15:43:51;13.80;99.90
19610;DHT22;9952;47.122;-1.638;2023-03-14T15:48:32;13.80;99.90
19610;DHT22;9952;47.122;-1.638;2023-03-14T15:53:13;13.80;99.90
19610;DHT22;9952;47.122;-1.638;2023-03-14T15:57:54;13.90;99.90
19610;DHT22;9952;47.122;-1.638;2023-03-14T16:02:35;13.80;99.90
19610;DHT22;9952;47.122;-1.638;2023-03-14T16:07:20;13.70;99.90
19610;DHT22;9952;47.122;-1.638;2023-03-14T16:12:01;13.70;99.90
19610;DHT22;9952;47.122;-1.638;2023-03-14T16:16:43;13.60;99.90
19610;DHT22;9952;47.122;-1.638;2023-03-14T16:21:24;13.50;99.90
19610;DHT22;9952;47.122;-1.638;2023-03-14T16:26:12;13.50;99.90
19610;DHT22;9952;47.122;-1.638;2023-03-14T16:31:00;13.40;99.90
19610;DHT22;9952;47.122;-1.638;2023-03-14T16:35:41;13.20;99.90
19610;DHT22;9952;47.122;-1.638;2023-03-14T16:40:32;13.10;99.90
19610;DHT22;9952;47.122;-1.638;2023-03-14T16:45:13;13.00;99.90
19610;DHT22;9952;47.122;-1.638;2023-03-14T16:49:54;12.90;99.90
19610;DHT22;9952;47.122;-1.638;2023-03-14T16:54:35;12.90;99.90
19610;DHT22;9952;47.122;-1.638;2023-03-14T16:59:15;12.80;99.90
19610;DHT22;9952;47.122;-1.638;2023-03-14T17:03:56;12.80;99.90
19610;DHT22;9952;47.122;-1.638;2023-03-14T17:08:37;12.70;99.90
19610;DHT22;9952;47.122;-1.638;2023-03-14T17:13:18;12.60;99.90
19610;DHT22;9952;47.122;-1.638;2023-03-14T17:18:05;12.50;99.90
19610;DHT22;9952;47.122;-1.638;2023-03-14T17:22:46;12.40;99.90
19610;DHT22;9952;47.122;-1.638;2023-03-14T17:27:27;12.30;99.90
19610;DHT22;9952;47.122;-1.638;2023-03-14T17:32:08;12.20;99.90
19610;DHT22;9952;47.122;-1.638;2023-03-14T17:36:49;12.00;99.90
19610;DHT22;9952;47.122;-1.638;2023-03-14T17:41:29;11.90;99.90
19610;DHT22;9952;47.122;-1.638;2023-03-14T17:46:12;11.80;99.90
19610;DHT22;9952;47.122;-1.638;2023-03-14T17:50:56;11.60;99.90
19610;DHT22;9952;47.122;-1.638;2023-03-14T17:55:38;11.50;99.90
19610;DHT22;9952;47.122;-1.638;2023-03-14T18:00:19;11.40;99.90
19610;DHT22;9952;47.122;-1.638;2023-03-14T18:05:02;11.30;99.90
19610;DHT22;9952;47.122;-1.638;2023-03-14T18:09:43;11.20;99.90
19610;DHT22;9952;47.122;-1.638;2023-03-14T18:14:24;11.10;99.90
19610;DHT22;9952;47.122;-1.638;2023-03-14T18:19:05;11.00;99.90
19610;DHT22;9952;47.122;-1.638;2023-03-14T18:23:46;10.90;99.90
19610;DHT22;9952;47.122;-1.638;2023-03-14T18:28:27;10.80;99.90
19610;DHT22;9952;47.122;-1.638;2023-03-14T18:33:09;10.70;99.90
19610;DHT22;9952;47.122;-1.638;2023-03-14T18:37:52;10.70;99.90
19610;DHT22;9952;47.122;-1.638;2023-03-14T18:42:33;10.60;99.90
19610;DHT22;9952;47.122;-1.638;2023-03-14T18:47:14;10.50;99.90
19610;DHT22;9952;47.122;-1.638;2023-03-14T18:51:54;10.40;99.90
19610;DHT22;9952;47.122;-1.638;2023-03-14T18:56:36;10.30;99.90
19610;DHT22;9952;47.122;-1.638;2023-03-14T19:01:17;10.30;99.90
19610;DHT22;9952;47.122;-1.638;2023-03-14T19:05:59;10.20;99.90
19610;DHT22;9952;47.122;-1.638;2023-03-14T19:10:40;10.10;99.90
19610;DHT22;9952;47.122;-1.638;2023-03-14T19:15:20;10.10;99.90
19610;DHT22;9952;47.122;-1.638;2023-03-14T19:20:01;10.00;99.90
19610;DHT22;9952;47.122;-1.638;2023-03-14T19:24:42;9.90;99.90
19610;DHT22;9952;47.122;-1.638;2023-03-14T19:29:23;9.90;99.90
19610;DHT22;9952;47.122;-1.638;2023-03-14T19:34:04;9.80;99.90
19610;DHT22;9952;47.122;-1.638;2023-03-14T19:38:44;9.70;99.90
19610;DHT22;9952;47.122;-1.638;2023-03-14T19:43:25;9.70;99.90
19610;DHT22;9952;47.122;-1.638;2023-03-14T19:48:07;9.60;99.90
19610;DHT22;9952;47.122;-1.638;2023-03-14T19:52:49;9.50;99.90
19610;DHT22;9952;47.122;-1.638;2023-03-14T19:57:30;9.40;99.90
19610;DHT22;9952;47.122;-1.638;2023-03-14T20:02:14;9.40;99.90
19610;DHT22;9952;47.122;-1.638;2023-03-14T20:06:55;9.40;99.90
19610;DHT22;9952;47.122;-1.638;2023-03-14T20:11:36;9.30;99.90
19610;DHT22;9952;47.122;-1.638;2023-03-14T20:16:20;9.30;99.90
19610;DHT22;9952;47.122;-1.638;2023-03-14T20:21:05;9.20;99.90
19610;DHT22;9952;47.122;-1.638;2023-03-14T20:25:56;9.20;99.90
19610;DHT22;9952;47.122;-1.638;2023-03-14T20:30:37;9.20;99.90
19610;DHT22;9952;47.122;-1.638;2023-03-14T20:35:18;9.10;99.90
19610;DHT22;9952;47.122;-1.638;2023-03-14T20:40:04;9.10;99.90
19610;DHT22;9952;47.122;-1.638;2023-03-14T20:44:48;9.00;99.90
19610;DHT22;9952;47.122;-1.638;2023-03-14T20:49:29;8.90;99.90
19610;DHT22;9952;47.122;-1.638;2023-03-14T20:54:11;8.90;99.90
19610;DHT22;9952;47.122;-1.638;2023-03-14T20:58:53;8.80;99.90
19610;DHT22;9952;47.122;-1.638;2023-03-14T21:03:34;8.80;99.90
19610;DHT22;9952;47.122;-1.638;2023-03-14T21:08:18;8.70;99.90
19610;DHT22;9952;47.122;-1.638;2023-03-14T21:12:59;8.70;99.90
19610;DHT22;9952;47.122;-1.638;2023-03-14T21:17:41;8.60;99.90
19610;DHT22;9952;47.122;-1.638;2023-03-14T21:22:21;8.50;99.90
19610;DHT22;9952;47.122;-1.638;2023-03-14T21:27:02;8.50;99.90
19610;DHT22;9952;47.122;-1.638;2023-03-14T21:31:43;8.50;99.90
19610;DHT22;9952;47.122;-1.638;2023-03-14T21:36:24;8.40;99.90
19610;DHT22;9952;47.122;-1.638;2023-03-14T21:41:05;8.30;99.90
19610;DHT22;9952;47.122;-1.638;2023-03-14T21:45:47;8.20;99.90
19610;DHT22;9952;47.122;-1.638;2023-03-14T21:50:28;8.20;99.90
19610;DHT22;9952;47.122;-1.638;2023-03-14T21:55:09;8.10;99.90
19610;DHT22;9952;47.122;-1.638;2023-03-14T21:59:51;8.00;99.90
19610;DHT22;9952;47.122;-1.638;2023-03-14T22:04:33;7.90;99.90
19610;DHT22;9952;47.122;-1.638;2023-03-14T22:09:14;7.70;99.90
19610;DHT22;9952;47.122;-1.638;2023-03-14T22:13:54;7.70;99.90
19610;DHT22;9952;47.122;-1.638;2023-03-14T22:18:35;7.70;99.90
19610;DHT22;9952;47.122;-1.638;2023-03-14T22:23:16;7.60;99.90
19610;DHT22;9952;47.122;-1.638;2023-03-14T22:27:57;7.50;99.90
19610;DHT22;9952;47.122;-1.638;2023-03-14T22:32:38;7.30;99.90
19610;DHT22;9952;47.122;-1.638;2023-03-14T22:37:18;7.20;99.90
19610;DHT22;9952;47.122;-1.638;2023-03-14T22:42:00;7.00;99.90
19610;DHT22;9952;47.122;-1.638;2023-03-14T22:46:41;6.90;99.90
19610;DHT22;9952;47.122;-1.638;2023-03-14T22:51:22;6.80;99.90
19610;DHT22;9952;47.122;-1.638;2023-03-14T22:56:04;6.70;99.90
19610;DHT22;9952;47.122;-1.638;2023-03-14T23:00:45;6.70;99.90
19610;DHT22;9952;47.122;-1.638;2023-03-14T23:05:26;6.60;99.90
19610;DHT22;9952;47.122;-1.638;2023-03-14T23:10:08;6.60;99.90
19610;DHT22;9952;47.122;-1.638;2023-03-14T23:14:49;6.50;99.90
19610;DHT22;9952;47.122;-1.638;2023-03-14T23:19:30;6.40;99.90
19610;DHT22;9952;47.122;-1.638;2023-03-14T23:24:10;6.40;99.90
19610;DHT22;9952;47.122;-1.638;2023-03-14T23:28:53;6.30;99.90
19610;DHT22;9952;47.122;-1.638;2023-03-14T23:33:35;6.30;99.90
19610;DHT22;9952;47.122;-1.638;2023-03-14T23:38:17;6.20;99.90
19610;DHT22;9952;47.122;-1.638;2023-03-14T23:42:57;6.10;99.90
19610;DHT22;9952;47.122;-1.638;2023-03-14T23:47:38;6.10;99.90
19610;DHT22;9952;47.122;-1.638;2023-03-14T23:52:20;6.00;99.90
19610;DHT22;9952;47.122;-1.638;2023-03-14T23:57:01;5.90;99.90
